sensor_id;sensor_type;location;lat;lon;timestamp;temperature;humidity
39925;DHT22;25592;49.986;11.618;2024-02-14T00:01:26;5.50;99.90
39925;DHT22;25592;49.986;11.618;2024-02-14T00:04:12;5.50;99.90
39925;DHT22;25592;49.986;11.618;2024-02-14T00:06:59;5.50;99.90
39925;DHT22;25592;49.986;11.618;2024-02-14T00:09:45;5.50;99.90
39925;DHT22;25592;49.986;11.618;2024-02-14T00:12:30;5.50;99.90
39925;DHT22;25592;49.986;11.618;2024-02-14T00:15:16;5.60;99.90
39925;DHT22;25592;49.986;11.618;2024-02-14T00:18:01;5.60;99.90
39925;DHT22;25592;49.986;11.618;2024-02-14T00:20:47;5.70;99.90
39925;DHT22;25592;49.986;11.618;2024-02-14T00:23:32;5.70;99.90
39925;DHT22;25592;49.986;11.618;2024-02-14T00:26:18;5.70;99.90
39925;DHT22;25592;49.986;11.618;2024-02-14T00:29:03;5.80;99.90
39925;DHT22;25592;49.986;11.618;2024-02-14T00:31:48;5.80;99.90
39925;DHT22;25592;49.986;11.618;2024-02-14T00:34:34;5.80;99.90
39925;DHT22;25592;49.986;11.618;2024-02-14T00:37:20;5.70;99.90
39925;DHT22;25592;49.986;11.618;2024-02-14T00:40:05;5.70;99.90
39925;DHT22;25592;49.986;11.618;2024-02-14T00:42:51;5.70;99.90
39925;DHT22;25592;49.986;11.618;2024-02-14T00:45:36;5.70;99.90
39925;DHT22;25592;49.986;11.618;2024-02-14T00:48:23;5.70;99.90
39925;DHT22;25592;49.986;11.618;2024-02-14T00:51:09;5.70;99.90
39925;DHT22;25592;49.986;11.618;2024-02-14T00:53:54;5.70;99.90
39925;DHT22;25592;49.986;11.618;2024-02-14T00:56:40;5.60;99.90
39925;DHT22;25592;49.986;11.618;2024-02-14T00:59:25;5.60;99.90
39925;DHT22;25592;49.986;11.618;2024-02-14T01:02:11;5.50;99.90
39925;DHT22;25592;49.986;11.618;2024-02-14T01:04:57;5.60;99.90
39925;DHT22;25592;49.986;11.618;2024-02-14T01:07:42;5.60;99.90
39925;DHT22;25592;49.986;11.618;2024-02-14T01:10:28;5.70;99.90
39925;DHT22;25592;49.986;11.618;2024-02-14T01:13:13;5.60;99.90
39925;DHT22;25592;49.986;11.618;2024-02-14T01:15:59;5.60;99.90
39925;DHT22;25592;49.986;11.618;2024-02-14T01:18:44;5.60;99.90
39925;DHT22;25592;49.986;11.618;2024-02-14T01:21:29;5.60;99.90
39925;DHT22;25592;49.986;11.618;2024-02-14T01:24:15;5.70;99.90
39925;DHT22;25592;49.986;11.618;2024-02-14T01:27:01;5.70;99.90
39925;DHT22;25592;49.986;11.618;2024-02-14T01:29:48;5.70;99.90
39925;DHT22;25592;49.986;11.618;2024-02-14T01:32:34;5.70;99.90
39925;DHT22;25592;49.986;11.618;2024-02-14T01:35:19;5.70;99.90
39925;DHT22;25592;49.986;11.618;2024-02-14T01:38:05;5.80;99.90
39925;DHT22;25592;49.986;11.618;2024-02-14T01:40:51;5.70;99.90
39925;DHT22;25592;49.986;11.618;2024-02-14T01:43:37;5.70;99.90
39925;DHT22;25592;49.986;11.618;2024-02-14T01:46:23;5.70;99.90
39925;DHT22;25592;49.986;11.618;2024-02-14T01:49:09;5.70;99.90
39925;DHT22;25592;49.986;11.618;2024-02-14T01:51:59;5.80;99.90
39925;DHT22;25592;49.986;11.618;2024-02-14T01:54:47;5.80;99.90
39925;DHT22;25592;49.986;11.618;2024-02-14T01:57:33;5.80;99.90
39925;DHT22;25592;49.986;11.618;2024-02-14T02:00:20;5.80;99.90
39925;DHT22;25592;49.986;11.618;2024-02-14T02:03:06;5.80;99.90
39925;DHT22;25592;49.986;11.618;2024-02-14T02:05:55;5.80;99.90
39925;DHT22;25592;49.986;11.618;2024-02-14T02:08:44;5.90;99.90
39925;DHT22;25592;49.986;11.618;2024-02-14T02:11:29;5.90;99.90
39925;DHT22;25592;49.986;11.618;2024-02-14T02:14:16;5.90;99.90
39925;DHT22;25592;49.986;11.618;2024-02-14T02:17:01;5.90;99.90
39925;DHT22;25592;49.986;11.618;2024-02-14T02:19:47;5.90;99.90
39925;DHT22;25592;49.986;11.618;2024-02-14T02:22:33;5.90;99.90
39925;DHT22;25592;49.986;11.618;2024-02-14T02:25:20;5.90;99.90
39925;DHT22;25592;49.986;11.618;2024-02-14T02:28:10;5.90;99.90
39925;DHT22;25592;49.986;11.618;2024-02-14T02:30:55;5.90;99.90
39925;DHT22;25592;49.986;11.618;2024-02-14T02:33:40;5.90;99.90
39925;DHT22;25592;49.986;11.618;2024-02-14T02:36:26;6.00;99.90
39925;DHT22;25592;49.986;11.618;2024-02-14T02:39:15;6.00;99.90
39925;DHT22;25592;49.986;11.618;2024-02-14T02:42:01;6.00;99.90
39925;DHT22;25592;49.986;11.618;2024-02-14T02:44:47;5.90;99.90
39925;DHT22;25592;49.986;11.618;2024-02-14T02:47:34;5.80;99.90
39925;DHT22;25592;49.986;11.618;2024-02-14T02:50:19;5.90;99.90
39925;DHT22;25592;49.986;11.618;2024-02-14T02:53:06;5.80;99.90
39925;DHT22;25592;49.986;11.618;2024-02-14T02:55:52;5.80;99.90
39925;DHT22;25592;49.986;11.618;2024-02-14T02:58:39;5.80;99.90
39925;DHT22;25592;49.986;11.618;2024-02-14T03:12:38;5.70;99.90
39925;DHT22;25592;49.986;11.618;2024-02-14T03:15:23;5.60;99.90
39925;DHT22;25592;49.986;11.618;2024-02-14T03:18:10;5.60;99.90
39925;DHT22;25592;49.986;11.618;2024-02-14T03:20:57;5.60;99.90
39925;DHT22;25592;49.986;11.618;2024-02-14T03:23:42;5.70;99.90
39925;DHT22;25592;49.986;11.618;2024-02-14T03:26:30;5.70;99.90
39925;DHT22;25592;49.986;11.618;2024-02-14T03:29:18;5.80;99.90
39925;DHT22;25592;49.986;11.618;2024-02-14T03:32:05;5.80;99.90
39925;DHT22;25592;49.986;11.618;2024-02-14T03:34:50;5.80;99.90
39925;DHT22;25592;49.986;11.618;2024-02-14T03:37:37;5.80;99.90
39925;DHT22;25592;49.986;11.618;2024-02-14T03:40:24;5.80;99.90
39925;DHT22;25592;49.986;11.618;2024-02-14T03:43:10;5.90;99.90
39925;DHT22;25592;49.986;11.618;2024-02-14T03:45:57;5.80;99.90
39925;DHT22;25592;49.986;11.618;2024-02-14T03:48:45;5.90;99.90
39925;DHT22;25592;49.986;11.618;2024-02-14T03:51:32;5.90;99.90
39925;DHT22;25592;49.986;11.618;2024-02-14T03:54:18;5.80;99.90
39925;DHT22;25592;49.986;11.618;2024-02-14T03:57:05;5.90;99.90
39925;DHT22;25592;49.986;11.618;2024-02-14T03:59:53;5.80;99.90
39925;DHT22;25592;49.986;11.618;2024-02-14T04:02:38;5.70;99.90
39925;DHT22;25592;49.986;11.618;2024-02-14T04:05:25;5.60;99.90
39925;DHT22;25592;49.986;11.618;2024-02-14T04:08:14;5.50;99.90
39925;DHT22;25592;49.986;11.618;2024-02-14T04:11:00;5.50;99.90
39925;DHT22;25592;49.986;11.618;2024-02-14T04:13:45;5.50;99.90
39925;DHT22;25592;49.986;11.618;2024-02-14T04:16:31;5.50;99.90
39925;DHT22;25592;49.986;11.618;2024-02-14T04:19:16;5.50;99.90
39925;DHT22;25592;49.986;11.618;2024-02-14T04:22:03;5.60;99.90
39925;DHT22;25592;49.986;11.618;2024-02-14T04:24:48;5.70;99.90
39925;DHT22;25592;49.986;11.618;2024-02-14T04:27:34;5.70;99.90
39925;DHT22;25592;49.986;11.618;2024-02-14T04:30:19;5.70;99.90
39925;DHT22;25592;49.986;11.618;2024-02-14T04:33:05;5.70;99.90
39925;DHT22;25592;49.986;11.618;2024-02-14T04:35:57;5.80;99.90
39925;DHT22;25592;49.986;11.618;2024-02-14T04:38:43;5.60;99.90
39925;DHT22;25592;49.986;11.618;2024-02-14T04:41:28;5.60;99.90
39925;DHT22;25592;49.986;11.618;2024-02-14T04:44:14;5.60;99.90
39925;DHT22;25592;49.986;11.618;2024-02-14T04:46:59;5.60;99.90
39925;DHT22;25592;49.986;11.618;2024-02-14T04:49:45;5.60;99.90
39925;DHT22;25592;49.986;11.618;2024-02-14T04:52:30;5.70;99.90
39925;DHT22;25592;49.986;11.618;2024-02-14T04:55:16;5.80;99.90
39925;DHT22;25592;49.986;11.618;2024-02-14T04:58:01;5.70;99.90
39925;DHT22;25592;49.986;11.618;2024-02-14T05:00:47;5.70;99.90
39925;DHT22;25592;49.986;11.618;2024-02-14T05:03:33;5.70;99.90
39925;DHT22;25592;49.986;11.618;2024-02-14T05:06:19;5.80;99.90
39925;DHT22;25592;49.986;11.618;2024-02-14T05:09:05;5.80;99.90
39925;DHT22;25592;49.986;11.618;2024-02-14T05:11:50;5.80;99.90
39925;DHT22;25592;49.986;11.618;2024-02-14T05:14:38;5.90;99.90
39925;DHT22;25592;49.986;11.618;2024-02-14T05:17:24;6.00;99.90
39925;DHT22;25592;49.986;11.618;2024-02-14T05:20:10;6.00;99.90
39925;DHT22;25592;49.986;11.618;2024-02-14T05:22:55;6.00;99.90
39925;DHT22;25592;49.986;11.618;2024-02-14T05:25:40;6.10;99.90
39925;DHT22;25592;49.986;11.618;2024-02-14T05:28:26;6.10;99.90
39925;DHT22;25592;49.986;11.618;2024-02-14T05:31:11;6.20;99.90
39925;DHT22;25592;49.986;11.618;2024-02-14T05:33:57;6.20;99.90
39925;DHT22;25592;49.986;11.618;2024-02-14T05:36:42;6.20;99.90
39925;DHT22;25592;49.986;11.618;2024-02-14T05:39:28;6.10;99.90
39925;DHT22;25592;49.986;11.618;2024-02-14T05:42:13;6.10;99.90
39925;DHT22;25592;49.986;11.618;2024-02-14T05:44:58;6.10;99.90
39925;DHT22;25592;49.986;11.618;2024-02-14T05:47:44;6.10;99.90
39925;DHT22;25592;49.986;11.618;2024-02-14T05:50:29;6.10;99.90
39925;DHT22;25592;49.986;11.618;2024-02-14T05:53:15;6.20;99.90
39925;DHT22;25592;49.986;11.618;2024-02-14T05:56:00;6.20;99.90
39925;DHT22;25592;49.986;11.618;2024-02-14T05:58:46;6.10;99.90
39925;DHT22;25592;49.986;11.618;2024-02-14T06:01:31;6.10;99.90
39925;DHT22;25592;49.986;11.618;2024-02-14T06:04:17;6.20;99.90
39925;DHT22;25592;49.986;11.618;2024-02-14T06:07:02;6.20;99.90
39925;DHT22;25592;49.986;11.618;2024-02-14T06:09:50;6.30;99.90
39925;DHT22;25592;49.986;11.618;2024-02-14T06:12:36;6.30;99.90
39925;DHT22;25592;49.986;11.618;2024-02-14T06:15:22;6.20;99.90
39925;DHT22;25592;49.986;11.618;2024-02-14T06:18:07;6.10;99.90
39925;DHT22;25592;49.986;11.618;2024-02-14T06:20:52;6.20;99.90
39925;DHT22;25592;49.986;11.618;2024-02-14T06:23:38;6.20;99.90
39925;DHT22;25592;49.986;11.618;2024-02-14T06:26:24;6.30;99.90
39925;DHT22;25592;49.986;11.618;2024-02-14T06:29:10;6.30;99.90
39925;DHT22;25592;49.986;11.618;2024-02-14T06:31:55;6.40;99.90
39925;DHT22;25592;49.986;11.618;2024-02-14T06:34:41;6.50;99.90
39925;DHT22;25592;49.986;11.618;2024-02-14T06:37:27;6.40;99.90
39925;DHT22;25592;49.986;11.618;2024-02-14T06:40:12;6.40;99.90
39925;DHT22;25592;49.986;11.618;2024-02-14T06:42:58;6.60;99.90
39925;DHT22;25592;49.986;11.618;2024-02-14T06:45:45;6.70;99.90
39925;DHT22;25592;49.986;11.618;2024-02-14T06:48:31;6.70;99.90
39925;DHT22;25592;49.986;11.618;2024-02-14T06:51:17;6.70;99.90
39925;DHT22;25592;49.986;11.618;2024-02-14T06:54:03;6.70;99.90
39925;DHT22;25592;49.986;11.618;2024-02-14T06:56:48;6.80;99.90
39925;DHT22;25592;49.986;11.618;2024-02-14T06:59:33;6.70;99.90
39925;DHT22;25592;49.986;11.618;2024-02-14T07:02:19;6.70;99.90
39925;DHT22;25592;49.986;11.618;2024-02-14T07:05:04;6.80;99.90
39925;DHT22;25592;49.986;11.618;2024-02-14T07:07:52;6.60;99.90
39925;DHT22;25592;49.986;11.618;2024-02-14T07:10:37;6.60;99.90
39925;DHT22;25592;49.986;11.618;2024-02-14T07:13:23;6.60;99.90
39925;DHT22;25592;49.986;11.618;2024-02-14T07:16:08;6.50;99.90
39925;DHT22;25592;49.986;11.618;2024-02-14T07:18:56;6.50;99.90
39925;DHT22;25592;49.986;11.618;2024-02-14T07:21:41;6.50;99.90
39925;DHT22;25592;49.986;11.618;2024-02-14T07:24:27;6.50;99.90
39925;DHT22;25592;49.986;11.618;2024-02-14T07:27:14;6.40;99.90
39925;DHT22;25592;49.986;11.618;2024-02-14T07:30:00;6.40;99.90
39925;DHT22;25592;49.986;11.618;2024-02-14T07:32:46;6.40;99.90
39925;DHT22;25592;49.986;11.618;2024-02-14T07:35:32;6.50;99.90
39925;DHT22;25592;49.986;11.618;2024-02-14T07:38:17;6.50;99.90
39925;DHT22;25592;49.986;11.618;2024-02-14T07:41:03;6.50;99.90
39925;DHT22;25592;49.986;11.618;2024-02-14T07:43:48;6.50;99.90
39925;DHT22;25592;49.986;11.618;2024-02-14T07:46:34;6.50;99.90
39925;DHT22;25592;49.986;11.618;2024-02-14T07:49:19;6.50;99.90
39925;DHT22;25592;49.986;11.618;2024-02-14T07:52:06;6.60;99.90
39925;DHT22;25592;49.986;11.618;2024-02-14T07:54:52;6.60;99.90
39925;DHT22;25592;49.986;11.618;2024-02-14T07:57:40;6.70;99.90
39925;DHT22;25592;49.986;11.618;2024-02-14T08:00:26;6.70;99.90
39925;DHT22;25592;49.986;11.618;2024-02-14T08:03:11;6.90;99.90
39925;DHT22;25592;49.986;11.618;2024-02-14T08:05:57;6.90;99.90
39925;DHT22;25592;49.986;11.618;2024-02-14T08:08:42;6.80;99.90
39925;DHT22;25592;49.986;11.618;2024-02-14T08:11:29;6.80;99.90
39925;DHT22;25592;49.986;11.618;2024-02-14T08:14:14;6.70;99.90
39925;DHT22;25592;49.986;11.618;2024-02-14T08:17:00;6.80;99.90
39925;DHT22;25592;49.986;11.618;2024-02-14T08:19:45;6.80;99.90
39925;DHT22;25592;49.986;11.618;2024-02-14T08:22:31;6.80;99.90
39925;DHT22;25592;49.986;11.618;2024-02-14T08:25:17;6.80;99.90
39925;DHT22;25592;49.986;11.618;2024-02-14T08:28:02;6.90;99.90
39925;DHT22;25592;49.986;11.618;2024-02-14T08:30:48;6.90;99.90
39925;DHT22;25592;49.986;11.618;2024-02-14T08:33:33;6.90;99.90
39925;DHT22;25592;49.986;11.618;2024-02-14T08:36:18;6.90;99.90
39925;DHT22;25592;49.986;11.618;2024-02-14T08:39:06;6.90;99.90
39925;DHT22;25592;49.986;11.618;2024-02-14T08:41:51;7.00;99.90
39925;DHT22;25592;49.986;11.618;2024-02-14T08:44:38;6.90;99.90
39925;DHT22;25592;49.986;11.618;2024-02-14T08:47:23;7.00;99.90
39925;DHT22;25592;49.986;11.618;2024-02-14T08:50:09;7.10;99.90
39925;DHT22;25592;49.986;11.618;2024-02-14T08:52:54;7.10;99.90
39925;DHT22;25592;49.986;11.618;2024-02-14T08:55:40;7.00;99.90
39925;DHT22;25592;49.986;11.618;2024-02-14T08:58:26;7.00;99.90
39925;DHT22;25592;49.986;11.618;2024-02-14T09:01:11;7.00;99.90
39925;DHT22;25592;49.986;11.618;2024-02-14T09:04:00;7.00;99.90
39925;DHT22;25592;49.986;11.618;2024-02-14T09:06:45;7.00;99.90
39925;DHT22;25592;49.986;11.618;2024-02-14T09:09:31;7.00;99.90
39925;DHT22;25592;49.986;11.618;2024-02-14T09:12:17;7.10;99.90
39925;DHT22;25592;49.986;11.618;2024-02-14T09:15:02;7.10;99.90
39925;DHT22;25592;49.986;11.618;2024-02-14T09:17:50;7.10;99.90
39925;DHT22;25592;49.986;11.618;2024-02-14T09:20:37;7.10;99.90
39925;DHT22;25592;49.986;11.618;2024-02-14T09:23:23;7.10;99.90
39925;DHT22;25592;49.986;11.618;2024-02-14T09:26:08;7.10;99.90
39925;DHT22;25592;49.986;11.618;2024-02-14T09:28:55;7.20;99.90
39925;DHT22;25592;49.986;11.618;2024-02-14T09:31:41;7.10;99.90
39925;DHT22;25592;49.986;11.618;2024-02-14T09:34:26;7.20;99.90
39925;DHT22;25592;49.986;11.618;2024-02-14T09:37:11;7.20;99.90
39925;DHT22;25592;49.986;11.618;2024-02-14T09:39:57;7.20;99.90
39925;DHT22;25592;49.986;11.618;2024-02-14T09:42:53;7.10;99.90
39925;DHT22;25592;49.986;11.618;2024-02-14T09:45:40;7.10;99.90
39925;DHT22;25592;49.986;11.618;2024-02-14T09:48:27;7.00;99.90
39925;DHT22;25592;49.986;11.618;2024-02-14T09:51:13;7.00;99.90
39925;DHT22;25592;49.986;11.618;2024-02-14T09:54:03;7.00;99.90
39925;DHT22;25592;49.986;11.618;2024-02-14T09:56:52;7.00;99.90
39925;DHT22;25592;49.986;11.618;2024-02-14T09:59:39;7.00;99.90
39925;DHT22;25592;49.986;11.618;2024-02-14T10:02:25;7.00;99.90
39925;DHT22;25592;49.986;11.618;2024-02-14T10:05:10;7.10;99.90
39925;DHT22;25592;49.986;11.618;2024-02-14T10:07:57;7.10;99.90
39925;DHT22;25592;49.986;11.618;2024-02-14T10:10:44;7.20;99.90
39925;DHT22;25592;49.986;11.618;2024-02-14T10:13:33;7.20;99.90
39925;DHT22;25592;49.986;11.618;2024-02-14T10:16:19;7.30;99.90
39925;DHT22;25592;49.986;11.618;2024-02-14T10:19:18;7.20;99.90
39925;DHT22;25592;49.986;11.618;2024-02-14T10:22:04;7.40;99.90
39925;DHT22;25592;49.986;11.618;2024-02-14T10:24:51;7.30;99.90
39925;DHT22;25592;49.986;11.618;2024-02-14T10:27:38;7.50;99.90
39925;DHT22;25592;49.986;11.618;2024-02-14T10:30:23;7.60;99.90
39925;DHT22;25592;49.986;11.618;2024-02-14T10:33:10;7.60;99.90
39925;DHT22;25592;49.986;11.618;2024-02-14T10:36:09;7.70;99.90
39925;DHT22;25592;49.986;11.618;2024-02-14T10:38:57;7.70;99.90
39925;DHT22;25592;49.986;11.618;2024-02-14T10:41:43;7.70;99.90
39925;DHT22;25592;49.986;11.618;2024-02-14T10:44:29;7.80;99.90
39925;DHT22;25592;49.986;11.618;2024-02-14T10:47:18;7.80;99.90
39925;DHT22;25592;49.986;11.618;2024-02-14T10:50:06;7.90;99.90
39925;DHT22;25592;49.986;11.618;2024-02-14T10:52:57;8.10;99.90
39925;DHT22;25592;49.986;11.618;2024-02-14T10:55:46;8.10;99.90
39925;DHT22;25592;49.986;11.618;2024-02-14T10:58:33;8.10;99.90
39925;DHT22;25592;49.986;11.618;2024-02-14T11:01:20;8.10;99.90
39925;DHT22;25592;49.986;11.618;2024-02-14T11:04:06;8.10;99.90
39925;DHT22;25592;49.986;11.618;2024-02-14T11:06:52;8.10;99.90
39925;DHT22;25592;49.986;11.618;2024-02-14T11:09:43;8.20;99.90
39925;DHT22;25592;49.986;11.618;2024-02-14T11:12:33;8.10;99.90
39925;DHT22;25592;49.986;11.618;2024-02-14T11:15:23;8.10;99.90
39925;DHT22;25592;49.986;11.618;2024-02-14T11:18:10;8.20;99.90
39925;DHT22;25592;49.986;11.618;2024-02-14T11:20:56;8.30;99.90
39925;DHT22;25592;49.986;11.618;2024-02-14T11:23:54;8.40;99.90
39925;DHT22;25592;49.986;11.618;2024-02-14T11:26:50;8.50;99.90
39925;DHT22;25592;49.986;11.618;2024-02-14T11:29:50;8.50;99.90
39925;DHT22;25592;49.986;11.618;2024-02-14T11:32:37;8.50;99.90
39925;DHT22;25592;49.986;11.618;2024-02-14T11:35:26;8.60;99.90
39925;DHT22;25592;49.986;11.618;2024-02-14T11:38:12;8.60;99.90
39925;DHT22;25592;49.986;11.618;2024-02-14T11:40:57;8.60;99.90
39925;DHT22;25592;49.986;11.618;2024-02-14T11:43:51;8.60;99.90
39925;DHT22;25592;49.986;11.618;2024-02-14T11:46:37;8.60;99.90
39925;DHT22;25592;49.986;11.618;2024-02-14T11:49:22;8.60;99.90
39925;DHT22;25592;49.986;11.618;2024-02-14T11:52:14;8.60;99.90
39925;DHT22;25592;49.986;11.618;2024-02-14T11:54:59;8.70;99.90
39925;DHT22;25592;49.986;11.618;2024-02-14T11:57:45;8.70;99.90
39925;DHT22;25592;49.986;11.618;2024-02-14T12:00:33;8.70;99.90
39925;DHT22;25592;49.986;11.618;2024-02-14T12:03:22;8.60;99.90
39925;DHT22;25592;49.986;11.618;2024-02-14T12:06:08;8.70;99.90
39925;DHT22;25592;49.986;11.618;2024-02-14T12:08:54;8.70;99.90
39925;DHT22;25592;49.986;11.618;2024-02-14T12:11:41;8.80;99.90
39925;DHT22;25592;49.986;11.618;2024-02-14T12:14:28;8.70;99.90
39925;DHT22;25592;49.986;11.618;2024-02-14T12:17:16;8.80;99.90
39925;DHT22;25592;49.986;11.618;2024-02-14T12:20:10;8.70;99.90
39925;DHT22;25592;49.986;11.618;2024-02-14T12:22:56;8.70;99.90
39925;DHT22;25592;49.986;11.618;2024-02-14T12:25:42;8.60;99.90
39925;DHT22;25592;49.986;11.618;2024-02-14T12:28:29;8.70;99.90
39925;DHT22;25592;49.986;11.618;2024-02-14T12:31:24;8.80;99.90
39925;DHT22;25592;49.986;11.618;2024-02-14T12:34:11;8.80;99.90
39925;DHT22;25592;49.986;11.618;2024-02-14T12:36:56;8.90;99.90
39925;DHT22;25592;49.986;11.618;2024-02-14T12:39:42;8.90;99.90
39925;DHT22;25592;49.986;11.618;2024-02-14T12:42:27;8.80;99.90
39925;DHT22;25592;49.986;11.618;2024-02-14T12:45:13;8.80;99.90
39925;DHT22;25592;49.986;11.618;2024-02-14T12:48:01;8.90;99.90
39925;DHT22;25592;49.986;11.618;2024-02-14T12:50:47;8.90;99.90
39925;DHT22;25592;49.986;11.618;2024-02-14T12:53:35;9.00;99.90
39925;DHT22;25592;49.986;11.618;2024-02-14T12:56:20;9.00;99.90
39925;DHT22;25592;49.986;11.618;2024-02-14T12:59:07;9.00;99.90
39925;DHT22;25592;49.986;11.618;2024-02-14T13:01:52;9.00;99.90
39925;DHT22;25592;49.986;11.618;2024-02-14T13:04:38;9.00;99.90
39925;DHT22;25592;49.986;11.618;2024-02-14T13:07:24;9.00;99.90
39925;DHT22;25592;49.986;11.618;2024-02-14T13:10:10;9.10;99.90
39925;DHT22;25592;49.986;11.618;2024-02-14T13:12:55;9.10;99.90
39925;DHT22;25592;49.986;11.618;2024-02-14T13:15:44;9.10;99.90
39925;DHT22;25592;49.986;11.618;2024-02-14T13:18:30;9.10;99.90
39925;DHT22;25592;49.986;11.618;2024-02-14T13:21:15;9.10;99.90
39925;DHT22;25592;49.986;11.618;2024-02-14T13:24:02;9.20;99.90
39925;DHT22;25592;49.986;11.618;2024-02-14T13:26:49;9.20;99.90
39925;DHT22;25592;49.986;11.618;2024-02-14T13:29:34;9.20;99.90
39925;DHT22;25592;49.986;11.618;2024-02-14T13:32:20;9.30;99.90
39925;DHT22;25592;49.986;11.618;2024-02-14T13:35:05;9.30;99.90
39925;DHT22;25592;49.986;11.618;2024-02-14T13:37:51;9.30;99.90
39925;DHT22;25592;49.986;11.618;2024-02-14T13:40:37;9.20;99.90
39925;DHT22;25592;49.986;11.618;2024-02-14T13:43:22;9.30;99.90
39925;DHT22;25592;49.986;11.618;2024-02-14T13:46:07;9.20;99.90
39925;DHT22;25592;49.986;11.618;2024-02-14T13:48:54;9.20;99.90
39925;DHT22;25592;49.986;11.618;2024-02-14T13:51:40;9.30;99.90
39925;DHT22;25592;49.986;11.618;2024-02-14T13:54:26;9.30;99.90
39925;DHT22;25592;49.986;11.618;2024-02-14T13:57:11;9.20;99.90
39925;DHT22;25592;49.986;11.618;2024-02-14T13:59:57;9.30;99.90
39925;DHT22;25592;49.986;11.618;2024-02-14T14:02:43;9.30;99.90
39925;DHT22;25592;49.986;11.618;2024-02-14T14:05:28;9.40;99.90
39925;DHT22;25592;49.986;11.618;2024-02-14T14:08:14;9.30;99.90
39925;DHT22;25592;49.986;11.618;2024-02-14T14:11:00;9.30;99.90
39925;DHT22;25592;49.986;11.618;2024-02-14T14:13:45;9.30;99.90
39925;DHT22;25592;49.986;11.618;2024-02-14T14:16:31;9.30;99.90
39925;DHT22;25592;49.986;11.618;2024-02-14T14:19:18;9.30;99.90
39925;DHT22;25592;49.986;11.618;2024-02-14T14:22:04;9.30;99.90
39925;DHT22;25592;49.986;11.618;2024-02-14T14:24:49;9.20;99.90
39925;DHT22;25592;49.986;11.618;2024-02-14T14:27:37;9.30;99.90
39925;DHT22;25592;49.986;11.618;2024-02-14T14:30:24;9.30;99.90
39925;DHT22;25592;49.986;11.618;2024-02-14T14:33:09;9.40;99.90
39925;DHT22;25592;49.986;11.618;2024-02-14T14:35:55;9.40;99.90
39925;DHT22;25592;49.986;11.618;2024-02-14T14:38:41;9.30;99.90
39925;DHT22;25592;49.986;11.618;2024-02-14T14:41:27;9.20;99.90
39925;DHT22;25592;49.986;11.618;2024-02-14T14:44:13;9.20;99.90
39925;DHT22;25592;49.986;11.618;2024-02-14T14:46:59;9.20;99.90
39925;DHT22;25592;49.986;11.618;2024-02-14T14:49:45;9.30;99.90
39925;DHT22;25592;49.986;11.618;2024-02-14T14:52:31;9.30;99.90
39925;DHT22;25592;49.986;11.618;2024-02-14T14:55:16;9.30;99.90
39925;DHT22;25592;49.986;11.618;2024-02-14T14:58:12;9.30;99.90
39925;DHT22;25592;49.986;11.618;2024-02-14T15:00:58;9.30;99.90
39925;DHT22;25592;49.986;11.618;2024-02-14T15:03:44;9.40;99.90
39925;DHT22;25592;49.986;11.618;2024-02-14T15:06:29;9.30;99.90
39925;DHT22;25592;49.986;11.618;2024-02-14T15:09:15;9.30;99.90
39925;DHT22;25592;49.986;11.618;2024-02-14T15:12:01;9.40;99.90
39925;DHT22;25592;49.986;11.618;2024-02-14T15:14:46;9.50;99.90
39925;DHT22;25592;49.986;11.618;2024-02-14T15:17:32;9.50;99.90
39925;DHT22;25592;49.986;11.618;2024-02-14T15:20:17;9.40;99.90
39925;DHT22;25592;49.986;11.618;2024-02-14T15:23:03;9.40;99.90
39925;DHT22;25592;49.986;11.618;2024-02-14T15:25:49;9.40;99.90
39925;DHT22;25592;49.986;11.618;2024-02-14T15:28:34;9.30;99.90
39925;DHT22;25592;49.986;11.618;2024-02-14T15:31:25;9.40;99.90
39925;DHT22;25592;49.986;11.618;2024-02-14T15:34:29;9.40;99.90
39925;DHT22;25592;49.986;11.618;2024-02-14T15:37:16;9.40;99.90
39925;DHT22;25592;49.986;11.618;2024-02-14T15:40:03;9.30;99.90
39925;DHT22;25592;49.986;11.618;2024-02-14T15:42:49;9.30;99.90
39925;DHT22;25592;49.986;11.618;2024-02-14T15:45:35;9.30;99.90
39925;DHT22;25592;49.986;11.618;2024-02-14T15:48:20;9.30;99.90
39925;DHT22;25592;49.986;11.618;2024-02-14T15:51:06;9.40;99.90
39925;DHT22;25592;49.986;11.618;2024-02-14T15:53:52;9.40;99.90
39925;DHT22;25592;49.986;11.618;2024-02-14T15:56:38;9.40;99.90
39925;DHT22;25592;49.986;11.618;2024-02-14T15:59:23;9.40;99.90
39925;DHT22;25592;49.986;11.618;2024-02-14T16:02:10;9.50;99.90
39925;DHT22;25592;49.986;11.618;2024-02-14T16:04:55;9.50;99.90
39925;DHT22;25592;49.986;11.618;2024-02-14T16:07:41;9.50;99.90
39925;DHT22;25592;49.986;11.618;2024-02-14T16:10:26;9.50;99.90
39925;DHT22;25592;49.986;11.618;2024-02-14T16:13:12;9.50;99.90
39925;DHT22;25592;49.986;11.618;2024-02-14T16:15:57;9.50;99.90
39925;DHT22;25592;49.986;11.618;2024-02-14T16:18:42;9.60;99.90
39925;DHT22;25592;49.986;11.618;2024-02-14T16:21:28;9.60;99.90
39925;DHT22;25592;49.986;11.618;2024-02-14T16:24:13;9.50;99.90
39925;DHT22;25592;49.986;11.618;2024-02-14T16:26:59;9.50;99.90
39925;DHT22;25592;49.986;11.618;2024-02-14T16:29:46;9.40;99.90
39925;DHT22;25592;49.986;11.618;2024-02-14T16:32:35;9.50;99.90
39925;DHT22;25592;49.986;11.618;2024-02-14T16:35:21;9.40;99.90
39925;DHT22;25592;49.986;11.618;2024-02-14T16:38:07;9.40;99.90
39925;DHT22;25592;49.986;11.618;2024-02-14T16:40:53;9.50;99.90
39925;DHT22;25592;49.986;11.618;2024-02-14T16:43:39;9.50;99.90
39925;DHT22;25592;49.986;11.618;2024-02-14T16:46:24;9.50;99.90
39925;DHT22;25592;49.986;11.618;2024-02-14T16:49:10;9.60;99.90
39925;DHT22;25592;49.986;11.618;2024-02-14T16:51:56;9.60;99.90
39925;DHT22;25592;49.986;11.618;2024-02-14T16:54:41;9.70;99.90
39925;DHT22;25592;49.986;11.618;2024-02-14T16:57:27;9.70;99.90
39925;DHT22;25592;49.986;11.618;2024-02-14T17:00:13;9.70;99.90
39925;DHT22;25592;49.986;11.618;2024-02-14T17:02:59;9.60;99.90
39925;DHT22;25592;49.986;11.618;2024-02-14T17:05:56;9.60;99.90
39925;DHT22;25592;49.986;11.618;2024-02-14T17:08:42;9.70;99.90
39925;DHT22;25592;49.986;11.618;2024-02-14T17:11:28;9.70;99.90
39925;DHT22;25592;49.986;11.618;2024-02-14T17:14:13;9.60;99.90
39925;DHT22;25592;49.986;11.618;2024-02-14T17:17:00;9.70;99.90
39925;DHT22;25592;49.986;11.618;2024-02-14T17:19:46;9.70;99.90
39925;DHT22;25592;49.986;11.618;2024-02-14T17:22:31;9.70;99.90
39925;DHT22;25592;49.986;11.618;2024-02-14T17:25:17;9.70;99.90
39925;DHT22;25592;49.986;11.618;2024-02-14T17:28:04;9.70;99.90
39925;DHT22;25592;49.986;11.618;2024-02-14T17:30:50;9.70;99.90
39925;DHT22;25592;49.986;11.618;2024-02-14T17:33:38;9.70;99.90
39925;DHT22;25592;49.986;11.618;2024-02-14T17:36:23;9.70;99.90
39925;DHT22;25592;49.986;11.618;2024-02-14T17:39:09;9.70;99.90
39925;DHT22;25592;49.986;11.618;2024-02-14T17:41:55;9.70;99.90